createdAt,value
2022-08-20T00:00:16.545Z,83.65
2022-08-20T00:17:51.153Z,83.84
2022-08-20T00:20:21.721Z,84.13
2022-08-20T00:22:49.987Z,84.38
2022-08-20T00:25:18.953Z,84.70
2022-08-20T00:27:46.667Z,84.62
2022-08-20T00:30:15.795Z,84.35
2022-08-20T00:32:45.626Z,84.10
2022-08-20T00:35:16.249Z,84.19
2022-08-20T00:37:44.476Z,84.23
2022-08-20T00:55:31.452Z,84.54
2022-08-20T00:58:02.984Z,84.02
2022-08-20T01:00:33.610Z,84.13
2022-08-20T01:03:01.920Z,83.97
2022-08-20T01:05:30.336Z,84.07
2022-08-20T01:07:59.093Z,83.87
2022-08-20T01:10:34.669Z,83.93
2022-08-20T01:13:08.453Z,84.02
2022-08-20T01:15:43.043Z,83.73
2022-08-20T01:18:14.547Z,83.83
2022-08-20T01:20:47.668Z,84.22
2022-08-20T01:23:27.467Z,83.92
2022-08-20T01:26:02.667Z,84.00
2022-08-20T01:28:36.231Z,83.94
2022-08-20T01:31:04.753Z,84.17
2022-08-20T01:33:35.609Z,84.20
2022-08-20T01:36:03.668Z,84.07
2022-08-20T01:38:31.447Z,84.37
2022-08-20T01:41:17.814Z,83.93
2022-08-20T01:43:56.606Z,84.11
2022-08-20T01:46:27.842Z,84.44
2022-08-20T01:48:57.545Z,85.14
2022-08-20T01:51:28.781Z,85.50
2022-08-20T01:53:59.718Z,85.44
2022-08-20T01:56:33.930Z,85.60
2022-08-20T02:03:23.433Z,85.78
2022-08-20T02:05:53.395Z,85.76
2022-08-20T02:08:21.545Z,85.98
2022-08-20T02:22:21.659Z,87.75
2022-08-20T02:24:49.752Z,87.22
2022-08-20T02:27:18.899Z,87.55
2022-08-20T02:29:47.378Z,87.63
2022-08-20T02:35:58.350Z,88.17
2022-08-20T02:38:27.566Z,88.36
2022-08-20T02:40:55.732Z,88.53
2022-08-20T02:43:23.545Z,88.55
2022-08-20T02:49:39.060Z,88.07
2022-08-20T02:52:06.956Z,88.15
2022-08-20T02:54:36.180Z,88.26
2022-08-20T02:57:04.833Z,87.81
2022-08-20T02:59:33.638Z,87.92
2022-08-20T03:02:02.185Z,88.51
2022-08-20T03:04:30.360Z,88.17
2022-08-20T03:06:58.189Z,87.93
2022-08-20T03:09:26.454Z,87.76
2022-08-20T03:11:55.600Z,87.99
2022-08-20T03:14:23.958Z,88.14
2022-08-20T03:24:45.570Z,88.74
2022-08-20T03:27:15.269Z,89.27
2022-08-20T03:29:43.758Z,88.92
2022-08-20T03:32:11.485Z,88.63
2022-08-20T03:34:39.233Z,88.50
2022-08-20T03:37:06.955Z,87.83
2022-08-20T03:39:34.768Z,88.29
2022-08-20T03:42:02.943Z,88.48
2022-08-20T03:44:32.101Z,88.32
2022-08-20T03:46:59.848Z,88.25
2022-08-20T03:49:27.558Z,88.17
2022-08-20T03:51:58.005Z,87.80
2022-08-20T03:54:31.496Z,87.96
2022-08-20T03:56:59.993Z,87.86
2022-08-20T03:59:28.023Z,88.06
2022-08-20T04:01:57.246Z,87.89
2022-08-20T04:04:24.988Z,88.53
2022-08-20T04:06:53.011Z,88.37
2022-08-20T04:09:20.760Z,88.24
2022-08-20T04:15:37.347Z,88.20
2022-08-20T04:18:09.708Z,88.52
2022-08-20T05:40:34.956Z,89.01
2022-08-20T05:43:04.283Z,88.67
2022-08-20T05:45:32.012Z,88.80
2022-08-20T05:51:47.644Z,88.24
2022-08-20T05:54:16.242Z,87.91
2022-08-20T05:56:45.308Z,87.89
2022-08-20T05:59:14.099Z,87.88
2022-08-20T06:01:43.059Z,87.87
2022-08-20T06:04:26.737Z,87.74
2022-08-20T06:06:56.254Z,87.40
2022-08-20T06:09:31.083Z,87.24
2022-08-20T06:12:02.388Z,87.33
2022-08-20T06:14:30.199Z,87.22
2022-08-20T06:17:04.030Z,87.43
2022-08-20T06:19:33.183Z,87.13
2022-08-20T06:22:01.270Z,86.46
2022-08-20T06:24:29.188Z,87.10
2022-08-20T06:26:57.465Z,86.90
2022-08-20T06:29:27.677Z,87.08
2022-08-20T06:31:57.180Z,87.00
2022-08-20T06:34:28.192Z,87.13
2022-08-20T06:56:02.376Z,85.98
2022-08-20T06:58:37.102Z,85.85
2022-08-20T07:01:09.712Z,85.88
2022-08-20T07:03:38.875Z,86.25
2022-08-20T07:06:07.327Z,85.50
2022-08-20T07:32:29.470Z,81.78
2022-08-20T07:34:55.912Z,81.59
2022-08-20T07:37:23.450Z,81.60
2022-08-20T07:47:26.118Z,81.60
2022-08-20T07:49:52.558Z,81.57
2022-08-20T07:52:18.891Z,81.56
2022-08-20T07:54:45.308Z,81.77
2022-08-20T08:02:14.868Z,81.95
2022-08-20T08:04:41.172Z,82.15
2022-08-20T08:07:07.570Z,82.21
2022-08-20T08:09:35.012Z,82.14
2022-08-20T08:12:02.865Z,82.45
2022-08-20T08:14:32.919Z,82.02
2022-08-20T08:17:03.661Z,81.76
2022-08-20T08:19:37.820Z,81.16
2022-08-20T08:27:10.413Z,80.25
2022-08-20T08:29:37.302Z,80.60
2022-08-20T08:32:05.558Z,80.22
2022-08-20T08:34:33.764Z,80.36
2022-08-20T08:41:19.418Z,80.22
2022-08-20T08:43:48.847Z,80.56
2022-08-20T08:46:21.571Z,80.72
2022-08-20T08:48:53.365Z,80.48
2022-08-20T08:51:29.298Z,80.25
2022-08-20T08:53:58.097Z,80.17
2022-08-20T08:56:29.054Z,80.24
2022-08-20T08:59:01.535Z,80.44
2022-08-20T09:01:54.244Z,80.75
2022-08-20T09:04:22.007Z,80.77
2022-08-20T09:06:53.458Z,80.98
2022-08-20T09:09:25.934Z,80.84
2022-08-20T09:11:56.446Z,80.23
2022-08-20T09:14:25.786Z,80.46
2022-08-20T09:16:53.764Z,79.56
2022-08-20T09:19:21.665Z,80.40
2022-08-20T09:21:49.320Z,80.26
2022-08-20T09:24:17.113Z,80.04
2022-08-20T09:26:45.093Z,80.03
2022-08-20T09:29:12.920Z,79.85
2022-08-20T09:31:42.164Z,80.12
2022-08-20T09:34:10.196Z,80.32
2022-08-20T09:36:37.889Z,80.31
2022-08-20T09:39:05.701Z,80.05
2022-08-20T09:41:34.589Z,80.32
2022-08-20T09:44:02.819Z,80.57
2022-08-20T09:46:30.524Z,80.44
2022-08-20T09:48:59.584Z,80.50
2022-08-20T09:51:27.533Z,80.45
2022-08-20T09:53:55.869Z,80.74
2022-08-20T09:56:25.373Z,80.78
2022-08-20T09:58:58.003Z,80.33
2022-08-20T10:01:27.677Z,80.24
2022-08-20T10:03:55.444Z,79.97
2022-08-20T10:06:24.494Z,79.42
2022-08-20T10:08:52.220Z,79.34
2022-08-20T10:11:20.107Z,80.22
2022-08-20T10:13:48.355Z,79.36
2022-08-20T10:16:16.080Z,79.86
2022-08-20T10:18:49.229Z,80.21
2022-08-20T10:21:17.693Z,80.03
2022-08-20T10:23:46.719Z,79.72
2022-08-20T10:26:15.101Z,80.45
2022-08-20T10:28:42.842Z,80.50
2022-08-20T10:31:12.215Z,80.53
2022-08-20T10:33:41.558Z,80.82
2022-08-20T10:36:10.177Z,80.11
2022-08-20T10:38:38.074Z,79.92
2022-08-20T10:41:07.335Z,79.99
2022-08-20T10:43:35.476Z,80.53
2022-08-20T10:46:03.751Z,80.33
2022-08-20T10:48:31.700Z,80.13
2022-08-20T10:50:59.474Z,79.68
2022-08-20T10:53:27.386Z,79.43
2022-08-20T10:55:55.637Z,79.39
2022-08-20T10:58:25.147Z,79.46
2022-08-20T11:04:43.119Z,79.50
2022-08-20T11:07:16.777Z,78.95
2022-08-20T11:09:45.579Z,79.51
2022-08-20T11:12:14.035Z,79.39
2022-08-20T11:14:43.151Z,79.32
2022-08-20T11:17:11.358Z,79.15
2022-08-20T11:19:44.725Z,79.49
2022-08-20T11:22:13.036Z,78.91
2022-08-20T11:24:40.776Z,79.53
2022-08-20T11:34:43.168Z,79.63
2022-08-20T11:37:11.395Z,78.76
2022-08-20T11:39:41.839Z,78.88
2022-08-20T11:42:09.695Z,79.46
2022-08-20T11:44:37.402Z,79.63
2022-08-20T11:47:08.104Z,78.51
2022-08-20T11:49:38.203Z,78.39
2022-08-20T11:52:07.592Z,78.35
2022-08-20T11:54:35.226Z,78.43
2022-08-20T12:10:06.532Z,78.87
2022-08-20T12:12:32.979Z,77.19
2022-08-20T12:14:59.458Z,76.32
2022-08-20T12:17:28.322Z,75.41
2022-08-20T12:19:57.367Z,75.00
2022-08-20T12:22:25.533Z,74.79
2022-08-20T12:24:52.366Z,74.53
2022-08-20T12:32:10.771Z,74.14
2022-08-20T12:44:13.305Z,73.72
2022-08-20T12:47:08.583Z,73.15
2022-08-20T12:53:22.764Z,73.15
2022-08-20T12:55:49.165Z,73.17
2022-08-20T13:05:50.813Z,71.88
2022-08-20T13:08:18.540Z,71.86
2022-08-20T13:15:12.090Z,71.89
2022-08-20T13:17:39.734Z,72.09
2022-08-20T13:20:12.935Z,71.98
2022-08-20T13:26:38.054Z,72.03
2022-08-20T13:29:05.108Z,72.26
2022-08-20T13:31:32.159Z,72.46
2022-08-20T13:33:58.978Z,72.73
2022-08-20T13:39:51.145Z,73.18
2022-08-20T13:42:17.833Z,73.23
2022-08-20T13:44:44.745Z,71.98
2022-08-20T13:47:15.739Z,71.62
2022-08-20T13:49:42.386Z,71.45
2022-08-20T13:52:08.887Z,70.56
2022-08-20T13:54:35.332Z,69.63
2022-08-20T13:59:44.552Z,70.87
2022-08-20T14:02:12.150Z,70.95
2022-08-20T14:04:39.176Z,70.46
2022-08-20T14:07:10.422Z,70.14
2022-08-20T14:09:38.261Z,70.91
2022-08-20T14:16:27.423Z,71.90
2022-08-20T14:18:55.549Z,69.63
2022-08-20T14:21:21.855Z,68.14
2022-08-20T14:39:19.827Z,67.30
2022-08-20T14:41:46.733Z,68.84
2022-08-20T14:51:16.043Z,71.75
2022-08-20T15:09:02.104Z,76.24
2022-08-20T15:11:34.101Z,77.73
2022-08-20T15:14:02.287Z,78.02
2022-08-20T15:16:30.064Z,77.77
2022-08-20T15:18:59.733Z,76.85
2022-08-20T15:21:28.139Z,78.87
2022-08-20T15:23:57.873Z,79.22
2022-08-20T15:26:26.907Z,78.89
2022-08-20T15:28:54.746Z,78.95
2022-08-20T15:31:22.477Z,80.46
2022-08-20T15:33:50.419Z,77.86
2022-08-20T15:36:18.347Z,76.71
2022-08-20T15:38:46.178Z,77.53
2022-08-20T15:41:14.015Z,78.82
2022-08-20T15:43:43.288Z,78.33
2022-08-20T15:46:11.332Z,78.39
2022-08-20T16:00:39.241Z,77.10
2022-08-20T16:22:13.822Z,78.78
2022-08-20T16:24:41.541Z,79.10
2022-08-20T16:27:15.435Z,80.23
2022-08-20T16:29:55.199Z,80.23
2022-08-20T16:32:33.880Z,80.36
2022-08-20T16:35:09.307Z,80.37
2022-08-20T16:37:46.197Z,80.15
2022-08-20T16:40:25.924Z,80.07
2022-08-20T16:42:59.735Z,80.12
2022-08-20T17:08:03.308Z,80.09
2022-08-20T17:10:33.103Z,79.91
2022-08-20T17:13:04.114Z,79.88
2022-08-20T17:15:34.253Z,78.72
2022-08-20T17:22:08.293Z,78.59
2022-08-20T17:24:37.045Z,78.10
2022-08-20T17:27:08.096Z,79.13
2022-08-20T17:33:39.355Z,78.87
2022-08-20T17:36:10.507Z,78.70
2022-08-20T17:38:39.506Z,79.61
2022-08-20T17:41:13.877Z,79.20
2022-08-20T17:43:44.228Z,79.12
2022-08-20T17:53:51.244Z,78.70
2022-08-20T17:56:20.675Z,79.17
2022-08-20T18:03:50.837Z,78.66
2022-08-20T18:06:30.505Z,78.70
2022-08-20T18:09:02.903Z,78.21
2022-08-20T18:11:36.251Z,79.15
2022-08-20T18:18:15.909Z,79.19
2022-08-20T18:21:14.543Z,79.57
2022-08-20T18:27:37.144Z,80.22
2022-08-20T18:30:13.434Z,80.48
2022-08-20T18:32:39.992Z,80.71
2022-08-20T18:35:12.785Z,80.50
2022-08-20T18:37:40.144Z,80.48
2022-08-20T18:40:26.286Z,80.84
2022-08-20T18:47:46.085Z,79.33
2022-08-20T18:50:26.408Z,80.69
2022-08-20T19:00:25.402Z,80.98
2022-08-20T19:02:57.057Z,80.91
2022-08-20T19:05:28.509Z,81.43
2022-08-20T19:07:57.228Z,81.17
2022-08-20T19:10:38.974Z,80.96
2022-08-20T19:15:54.213Z,81.44
2022-08-20T19:37:35.123Z,82.05
2022-08-20T19:51:14.134Z,80.95
2022-08-20T19:53:48.453Z,81.10
2022-08-20T19:56:19.214Z,80.97
2022-08-20T19:58:47.413Z,80.36
2022-08-20T20:05:09.569Z,80.20
2022-08-20T20:07:40.183Z,80.98
2022-08-20T20:16:07.009Z,81.55
2022-08-20T20:18:38.759Z,81.75
2022-08-20T20:28:47.376Z,82.09
2022-08-20T20:31:20.964Z,82.04
2022-08-20T20:33:52.724Z,81.80
2022-08-20T20:36:32.194Z,81.79
2022-08-20T20:44:20.607Z,81.36
2022-08-20T20:46:49.188Z,81.36
2022-08-20T20:49:22.666Z,81.27
2022-08-20T21:07:37.843Z,80.64
2022-08-20T21:10:05.745Z,81.04
2022-08-20T21:12:32.132Z,81.20
2022-08-20T21:14:58.599Z,81.24
2022-08-20T21:34:02.655Z,81.06
2022-08-20T21:36:29.252Z,80.39
2022-08-20T21:38:55.594Z,80.38
2022-08-20T21:41:29.421Z,80.53
2022-08-20T21:43:58.797Z,80.95
2022-08-20T21:46:27.910Z,80.50
2022-08-20T21:48:54.423Z,80.57
2022-08-20T22:05:38.907Z,79.75
2022-08-20T22:08:05.333Z,79.55
2022-08-20T22:10:31.844Z,79.77
2022-08-20T22:12:58.390Z,79.83
2022-08-20T22:19:16.262Z,80.04
2022-08-20T22:21:44.038Z,79.97
2022-08-20T22:29:15.075Z,79.15
2022-08-20T22:31:42.772Z,79.95
2022-08-20T22:34:10.935Z,80.04
2022-08-20T22:36:37.723Z,79.91
2022-08-20T22:39:04.931Z,79.47
2022-08-20T22:41:31.562Z,79.58
2022-08-20T22:47:43.080Z,80.02
2022-08-20T23:01:29.755Z,80.42
2022-08-20T23:04:08.072Z,80.46
2022-08-20T23:06:35.846Z,80.20
2022-08-20T23:09:03.601Z,79.96
2022-08-20T23:11:31.851Z,79.72
2022-08-20T23:13:59.869Z,79.55
2022-08-20T23:16:28.994Z,79.65
2022-08-20T23:18:56.861Z,80.32
2022-08-20T23:25:12.935Z,80.83
2022-08-20T23:27:44.678Z,80.45
2022-08-20T23:30:13.207Z,80.61
2022-08-20T23:32:42.784Z,79.56
2022-08-20T23:35:12.089Z,80.08
2022-08-20T23:37:44.231Z,79.90
2022-08-20T23:40:33.994Z,80.56
2022-08-20T23:43:02.114Z,80.95
2022-08-20T23:45:30.703Z,80.59
2022-08-20T23:48:00.096Z,79.78
2022-08-20T23:50:30.876Z,80.45
2022-08-20T23:52:59.561Z,80.25
2022-08-20T23:55:27.791Z,80.02
2022-08-20T23:57:55.526Z,79.81
